Dream Mayreau — F50498P — position and weather

sailwx.info

Track history (hours):
 
Tides and Currents Weather Stations Pressure Air Temp Water Temp Dewpoint Dewpoint Depression Visibility Wind Speed Wind Dir Waves Ship Positions

Dream Mayreau

Last reported at 2017-Nov-19 03:42 UTC. Time now 2017-Nov-23 17:09 UTC.
Position N 14°15' W 060°59'.

Length 18 m.

Type: Sailing vessel. MMSI: 329016740.

Date/timePositionNaut miles runAvg speedWind from/ knotsBaromVisibWave heightAir tempDewpointWater temp
2017-Nov-19 03:42N 14°15' W 060°59'2 9.1
2017-Nov-19 03:29N 14°17' W 060°58'4 8.9
2017-Nov-19 03:00N 14°21' W 060°57'4 8.8
2017-Nov-19 02:31N 14°25' W 060°55'3 5.1
2017-Nov-19 02:01N 14°27' W 060°53'2 3.2
2017-Nov-19 01:30N 14°28' W 060°52'0 0.0
2017-Nov-19 00:57N 14°28' W 060°52'0 0.0
2017-Nov-19 00:30N 14°28' W 060°52'0 0.0
2017-Nov-19 00:00N 14°28' W 060°52'0 0.0
2017-Nov-18 23:30N 14°28' W 060°52'0 0.0
2017-Nov-18 22:57N 14°28' W 060°52'0 0.0
2017-Nov-18 22:30N 14°28' W 060°52'0 0.0
2017-Nov-18 21:57N 14°28' W 060°52'0 0.0
2017-Nov-18 21:30N 14°28' W 060°52'0 0.0
2017-Nov-18 20:57N 14°28' W 060°52'0 0.0
2017-Nov-18 20:30N 14°28' W 060°52'0 0.0
2017-Nov-18 20:00N 14°28' W 060°52'0 0.0
2017-Nov-18 19:30N 14°28' W 060°52'0 0.0
2017-Nov-18 19:00N 14°28' W 060°52'0 0.0
2017-Nov-18 18:30N 14°28' W 060°52'0 0.0
2017-Nov-18 17:57N 14°28' W 060°52'0 0.0
2017-Nov-18 17:30N 14°28' W 060°52'0 0.0
2017-Nov-18 16:57N 14°28' W 060°52'0 0.0
2017-Nov-18 16:30N 14°28' W 060°52'0 0.0
2017-Nov-18 15:57N 14°28' W 060°52'0 0.0
2017-Nov-18 15:30N 14°28' W 060°52'0 0.0
2017-Nov-18 14:57N 14°28' W 060°52'0 0.0
2017-Nov-18 14:27N 14°28' W 060°52'0 0.0
2017-Nov-18 14:00N 14°28' W 060°52'0 0.0
2017-Nov-18 13:30N 14°28' W 060°52'0 0.0
2017-Nov-18 12:57N 14°28' W 060°52'0 0.3
2017-Nov-18 12:30N 14°28' W 060°52'0 0.0
2017-Nov-18 12:00N 14°28' W 060°52'1 2.5
2017-Nov-18 11:31N 14°27' W 060°53'1 0.1
2017-Nov-18 00:36N 14°26' W 060°53'0 0.0
2017-Nov-18 00:30N 14°26' W 060°53'0 0.0
2017-Nov-18 00:00N 14°26' W 060°53'0 0.0
2017-Nov-17 23:30N 14°26' W 060°53'0 0.0
2017-Nov-17 23:00N 14°26' W 060°53'1 1.7
2017-Nov-17 22:30N 14°26' W 060°54'3 6.8
2017-Nov-17 22:00N 14°23' W 060°55'4 7.0
2017-Nov-17 21:30N 14°19' W 060°56'  
2017-Nov-12 03:21N 14°16' W 060°58'3 8.6
2017-Nov-12 03:00N 14°19' W 060°57'4 8.6
2017-Nov-12 02:30N 14°23' W 060°56'4 7.4
2017-Nov-12 02:00N 14°26' W 060°55'3 5.7
2017-Nov-12 01:30N 14°28' W 060°52'0 0.7
2017-Nov-12 00:59N 14°28' W 060°52'0 0.0
2017-Nov-12 00:29N 14°28' W 060°52'0 0.0
2017-Nov-11 23:59N 14°28' W 060°52'0 0.0
2017-Nov-11 23:23N 14°28' W 060°52'0 0.0
2017-Nov-11 22:59N 14°28' W 060°52'0 0.0
2017-Nov-11 22:29N 14°28' W 060°52'0 0.0
2017-Nov-11 21:59N 14°28' W 060°52'0 0.0
2017-Nov-11 21:29N 14°28' W 060°52'0 0.0
2017-Nov-11 20:56N 14°28' W 060°52'0 0.0
2017-Nov-11 20:29N 14°28' W 060°52'0 0.0
2017-Nov-11 19:59N 14°28' W 060°52'0 0.0
2017-Nov-11 19:29N 14°28' W 060°52'0 0.0
2017-Nov-11 18:14N 14°28' W 060°52'0 0.0
2017-Nov-11 17:59N 14°28' W 060°52'0 0.0
2017-Nov-11 17:29N 14°28' W 060°52'0 0.0
2017-Nov-11 16:59N 14°28' W 060°52'0 0.0
2017-Nov-11 16:23N 14°28' W 060°52'0 0.0
2017-Nov-11 15:59N 14°28' W 060°52'0 0.0
2017-Nov-11 15:26N 14°28' W 060°52'0 0.0
2017-Nov-11 14:59N 14°28' W 060°52'0 0.0
2017-Nov-11 14:29N 14°28' W 060°52'0 0.0
2017-Nov-11 13:59N 14°28' W 060°52'  
Track history (hours):
 
Tides and Currents Weather Stations Pressure Air Temp Water Temp Dewpoint Dewpoint Depression Visibility Wind Speed Wind Dir Waves Ship Positions

Dream Mayreau

Last reported at 2017-Nov-19 03:42 UTC. Time now 2017-Nov-23 17:09 UTC.
Position N 14°15' W 060°59'.

Length 18 m.

Type: Sailing vessel. MMSI: 329016740.

Date/timePositionNaut miles runAvg speedWind from/ knotsBaromVisibWave heightAir tempDewpointWater temp
2017-Nov-19 03:42N 14°15' W 060°59'2 9.1
2017-Nov-19 03:29N 14°17' W 060°58'4 8.9
2017-Nov-19 03:00N 14°21' W 060°57'4 8.8
2017-Nov-19 02:31N 14°25' W 060°55'3 5.1
2017-Nov-19 02:01N 14°27' W 060°53'2 3.2
2017-Nov-19 01:30N 14°28' W 060°52'0 0.0
2017-Nov-19 00:57N 14°28' W 060°52'0 0.0
2017-Nov-19 00:30N 14°28' W 060°52'0 0.0
2017-Nov-19 00:00N 14°28' W 060°52'0 0.0
2017-Nov-18 23:30N 14°28' W 060°52'0 0.0
2017-Nov-18 22:57N 14°28' W 060°52'0 0.0
2017-Nov-18 22:30N 14°28' W 060°52'0 0.0
2017-Nov-18 21:57N 14°28' W 060°52'0 0.0
2017-Nov-18 21:30N 14°28' W 060°52'0 0.0
2017-Nov-18 20:57N 14°28' W 060°52'0 0.0
2017-Nov-18 20:30N 14°28' W 060°52'0 0.0
2017-Nov-18 20:00N 14°28' W 060°52'0 0.0
2017-Nov-18 19:30N 14°28' W 060°52'0 0.0
2017-Nov-18 19:00N 14°28' W 060°52'0 0.0
2017-Nov-18 18:30N 14°28' W 060°52'0 0.0
2017-Nov-18 17:57N 14°28' W 060°52'0 0.0
2017-Nov-18 17:30N 14°28' W 060°52'0 0.0
2017-Nov-18 16:57N 14°28' W 060°52'0 0.0
2017-Nov-18 16:30N 14°28' W 060°52'0 0.0
2017-Nov-18 15:57N 14°28' W 060°52'0 0.0
2017-Nov-18 15:30N 14°28' W 060°52'0 0.0
2017-Nov-18 14:57N 14°28' W 060°52'0 0.0
2017-Nov-18 14:27N 14°28' W 060°52'0 0.0
2017-Nov-18 14:00N 14°28' W 060°52'0 0.0
2017-Nov-18 13:30N 14°28' W 060°52'0 0.0
2017-Nov-18 12:57N 14°28' W 060°52'0 0.3
2017-Nov-18 12:30N 14°28' W 060°52'0 0.0
2017-Nov-18 12:00N 14°28' W 060°52'1 2.5
2017-Nov-18 11:31N 14°27' W 060°53'1 0.1
2017-Nov-18 00:36N 14°26' W 060°53'0 0.0
2017-Nov-18 00:30N 14°26' W 060°53'0 0.0
2017-Nov-18 00:00N 14°26' W 060°53'0 0.0
2017-Nov-17 23:30N 14°26' W 060°53'0 0.0
2017-Nov-17 23:00N 14°26' W 060°53'1 1.7
2017-Nov-17 22:30N 14°26' W 060°54'3 6.8
2017-Nov-17 22:00N 14°23' W 060°55'4 7.0
2017-Nov-17 21:30N 14°19' W 060°56'  
2017-Nov-12 03:21N 14°16' W 060°58'3 8.6
2017-Nov-12 03:00N 14°19' W 060°57'4 8.6
2017-Nov-12 02:30N 14°23' W 060°56'4 7.4
2017-Nov-12 02:00N 14°26' W 060°55'3 5.7
2017-Nov-12 01:30N 14°28' W 060°52'0 0.7
2017-Nov-12 00:59N 14°28' W 060°52'0 0.0
2017-Nov-12 00:29N 14°28' W 060°52'0 0.0
2017-Nov-11 23:59N 14°28' W 060°52'0 0.0
2017-Nov-11 23:23N 14°28' W 060°52'0 0.0
2017-Nov-11 22:59N 14°28' W 060°52'0 0.0
2017-Nov-11 22:29N 14°28' W 060°52'0 0.0
2017-Nov-11 21:59N 14°28' W 060°52'0 0.0
2017-Nov-11 21:29N 14°28' W 060°52'0 0.0
2017-Nov-11 20:56N 14°28' W 060°52'0 0.0
2017-Nov-11 20:29N 14°28' W 060°52'0 0.0
2017-Nov-11 19:59N 14°28' W 060°52'0 0.0
2017-Nov-11 19:29N 14°28' W 060°52'0 0.0
2017-Nov-11 18:14N 14°28' W 060°52'0 0.0
2017-Nov-11 17:59N 14°28' W 060°52'0 0.0
2017-Nov-11 17:29N 14°28' W 060°52'0 0.0
2017-Nov-11 16:59N 14°28' W 060°52'0 0.0
2017-Nov-11 16:23N 14°28' W 060°52'0 0.0
2017-Nov-11 15:59N 14°28' W 060°52'0 0.0
2017-Nov-11 15:26N 14°28' W 060°52'0 0.0
2017-Nov-11 14:59N 14°28' W 060°52'0 0.0
2017-Nov-11 14:29N 14°28' W 060°52'0 0.0
2017-Nov-11 13:59N 14°28' W 060°52'  

Dump ship's entire track history